Time,TemperatureF,DewpointF,PressureIn,WindDirection,WindDirectionDegrees,WindSpeedMPH,WindSpeedGustMPH,Humidity,HourlyPrecipIn,Conditions,Clouds,dailyrainin,SoftwareType,DateUTC
2013-04-10 00:00:00,46.1,41.8,29.95,SSW,192,0.0,0.0,85,0.00,,,0.03,Wunderground v.1.15,2013-04-10 04:00:00,
2013-04-10 00:05:00,46.0,41.7,29.95,SSW,192,0.0,0.0,85,0.00,,,0.00,Wunderground v.1.15,2013-04-10 04:05:00,
2013-04-10 00:10:00,46.0,41.7,29.95,SSW,192,0.0,0.0,85,0.00,,,0.00,Wunderground v.1.15,2013-04-10 04:10:00,
2013-04-10 00:15:00,45.8,41.9,29.95,SSW,192,0.0,0.0,86,0.00,,,0.00,Wunderground v.1.15,2013-04-10 04:15:00,
2013-04-10 00:20:00,45.8,41.9,29.95,SSW,192,0.0,0.0,86,0.00,,,0.00,Wunderground v.1.15,2013-04-10 04:20:00,
2013-04-10 00:30:00,45.8,41.9,29.94,SSW,192,0.0,0.0,86,0.00,,,0.00,Wunderground v.1.15,2013-04-10 04:30:00,
2013-04-10 00:35:00,45.8,42.2,29.94,SSW,192,0.0,0.0,87,0.00,,,0.00,Wunderground v.1.15,2013-04-10 04:35:00,
2013-04-10 00:40:00,45.7,42.1,29.94,SSW,192,0.0,0.0,87,0.00,,,0.00,Wunderground v.1.15,2013-04-10 04:40:00,
2013-04-10 00:50:00,45.8,43.0,29.93,SSW,192,0.0,0.0,90,0.00,,,0.00,Wunderground v.1.15,2013-04-10 04:50:00,
2013-04-10 00:55:00,45.7,42.9,29.94,SSW,192,0.0,0.0,90,0.00,,,0.00,Wunderground v.1.15,2013-04-10 04:55:00,
2013-04-10 01:00:00,45.4,43.2,29.96,SSW,192,0.0,0.0,92,0.00,,,0.00,Wunderground v.1.15,2013-04-10 05:00:00,
2013-04-10 01:10:00,45.5,43.9,29.95,SSW,192,0.0,0.0,94,0.00,,,0.00,Wunderground v.1.15,2013-04-10 05:10:00,
2013-04-10 01:15:00,45.4,43.8,29.98,SSW,192,0.0,0.0,94,0.00,,,0.00,Wunderground v.1.15,2013-04-10 05:15:00,
2013-04-10 01:20:00,45.4,43.8,29.99,SSW,192,0.0,0.0,94,0.00,,,0.00,Wunderground v.1.15,2013-04-10 05:20:00,
2013-04-10 01:25:00,45.2,43.6,30.00,SSW,192,0.0,0.0,94,0.00,,,0.00,Wunderground v.1.15,2013-04-10 05:25:00,
2013-04-10 01:35:00,45.2,43.9,30.00,SSW,192,0.0,0.0,95,0.00,,,0.01,Wunderground v.1.15,2013-04-10 05:35:00,
2013-04-10 01:40:00,45.2,44.1,29.99,SSW,192,0.0,0.0,96,0.00,,,0.01,Wunderground v.1.15,2013-04-10 05:40:00,
2013-04-10 01:45:00,45.4,44.3,30.00,SSW,192,0.0,0.0,96,0.00,,,0.01,Wunderground v.1.15,2013-04-10 05:45:00,
2013-04-10 01:55:00,45.4,44.3,30.00,SSW,192,0.0,0.0,96,0.00,,,0.02,Wunderground v.1.15,2013-04-10 05:55:00,
2013-04-10 02:00:00,45.4,44.3,29.99,SSW,192,0.0,0.0,96,0.00,,,0.02,Wunderground v.1.15,2013-04-10 06:00:00,
2013-04-10 02:05:00,45.2,44.1,29.99,SSW,192,0.0,0.0,96,0.06,,,0.03,Wunderground v.1.15,2013-04-10 06:05:00,
2013-04-10 02:15:00,45.2,44.4,29.99,SSW,192,0.0,0.0,97,0.20,,,0.05,Wunderground v.1.15,2013-04-10 06:15:00,
2013-04-10 02:20:00,45.2,44.4,30.00,SSW,192,0.0,0.0,97,0.26,,,0.07,Wunderground v.1.15,2013-04-10 06:20:00,
2013-04-10 02:25:00,45.2,44.4,30.00,SSW,192,0.0,0.0,97,0.21,,,0.09,Wunderground v.1.15,2013-04-10 06:25:00,
2013-04-10 02:35:00,45.2,44.7,30.01,SSW,192,0.0,0.0,98,0.49,,,0.15,Wunderground v.1.15,2013-04-10 06:35:00,
2013-04-10 02:40:00,45.4,44.9,29.99,SSW,192,0.0,0.0,98,0.27,,,0.17,Wunderground v.1.15,2013-04-10 06:40:00,
2013-04-10 02:45:00,45.5,45.0,30.00,SSW,192,0.0,0.0,98,0.41,,,0.20,Wunderground v.1.15,2013-04-10 06:45:00,
2013-04-10 02:50:00,45.5,45.2,29.98,SSW,192,0.0,1.0,99,0.55,,,0.24,Wunderground v.1.15,2013-04-10 06:50:00,
2013-04-10 03:00:00,45.7,45.4,29.97,SE,137,0.0,1.0,99,0.25,,,0.31,Wunderground v.1.15,2013-04-10 07:00:00,
2013-04-10 03:05:00,45.8,45.5,29.94,ESE,107,1.0,1.0,99,0.14,,,0.32,Wunderground v.1.15,2013-04-10 07:05:00,
2013-04-10 03:15:00,45.8,45.5,29.93,ESE,115,1.0,1.0,99,0.05,,,0.32,Wunderground v.1.15,2013-04-10 07:15:00,
2013-04-10 03:20:00,45.8,45.5,29.93,ESE,112,0.0,0.0,99,0.04,,,0.32,Wunderground v.1.15,2013-04-10 07:20:00,
2013-04-10 15:00:00,55.3,50.9,29.93,NE,37,1.0,3.0,85,0.00,,,0.36,Wunderground v.1.15,2013-04-10 19:00:00,
2013-04-10 15:10:00,56.2,51.1,29.91,NNE,19,1.0,2.0,83,0.00,,,0.36,Wunderground v.1.15,2013-04-10 19:10:00,
2013-04-10 15:15:00,56.6,50.5,29.90,NNE,19,1.0,2.0,80,0.00,,,0.36,Wunderground v.1.15,2013-04-10 19:15:00,
2013-04-10 15:20:00,56.7,49.6,29.90,NE,44,1.0,1.0,77,0.00,,,0.36,Wunderground v.1.15,2013-04-10 19:20:00,
2013-04-10 15:30:00,57.0,48.8,29.91,NE,36,1.0,1.0,74,0.00,,,0.36,Wunderground v.1.15,2013-04-10 19:30:00,
2013-04-10 15:35:00,57.2,48.6,29.91,NE,36,1.0,1.0,73,0.00,,,0.36,Wunderground v.1.15,2013-04-10 19:35:00,
2013-04-10 15:40:00,57.2,49.3,29.91,NE,36,1.0,1.0,75,0.00,,,0.36,Wunderground v.1.15,2013-04-10 19:40:00,
2013-04-10 15:50:00,57.2,48.6,29.91,NE,45,1.0,1.0,73,0.00,,,0.36,Wunderground v.1.15,2013-04-10 19:50:00,
2013-04-10 15:55:00,57.2,49.3,29.91,NE,38,1.0,2.0,75,0.00,,,0.36,Wunderground v.1.15,2013-04-10 19:55:00,
2013-04-10 16:05:00,57.2,49.3,29.91,NNW,345,2.0,3.0,75,0.00,,,0.36,Wunderground v.1.15,2013-04-10 20:05:00,
2013-04-10 16:10:00,57.2,49.3,29.91,NNW,343,2.0,2.0,75,0.00,,,0.36,Wunderground v.1.15,2013-04-10 20:10:00,
2013-04-10 16:15:00,57.0,49.9,29.92,NNW,344,1.0,2.0,77,0.00,,,0.36,Wunderground v.1.15,2013-04-10 20:15:00,
2013-04-10 16:25:00,56.9,49.8,29.91,NNW,344,0.0,1.0,77,0.00,,,0.36,Wunderground v.1.15,2013-04-10 20:25:00,
2013-04-10 16:30:00,56.9,50.1,29.92,NNW,344,0.0,3.0,78,0.00,,,0.36,Wunderground v.1.15,2013-04-10 20:30:00,
2013-04-10 16:35:00,56.9,48.3,29.91,NNW,347,1.0,3.0,73,0.00,,,0.36,Wunderground v.1.15,2013-04-10 20:35:00,
2013-04-10 16:40:00,57.0,48.1,29.91,North,350,2.0,2.0,72,0.00,,,0.36,Wunderground v.1.15,2013-04-10 20:40:00,
2013-04-10 16:50:00,57.2,49.3,29.92,NNW,338,1.0,1.0,75,0.00,,,0.36,Wunderground v.1.15,2013-04-10 20:50:00,
2013-04-10 16:55:00,57.0,48.8,29.92,NNW,340,1.0,1.0,74,0.00,,,0.36,Wunderground v.1.15,2013-04-10 20:55:00,
2013-04-10 17:05:00,56.7,49.9,29.92,NW,321,0.0,1.0,78,0.00,,,0.36,Wunderground v.1.15,2013-04-10 21:05:00,
2013-04-10 17:10:00,56.5,49.0,29.91,NW,321,0.0,1.0,76,0.00,,,0.36,Wunderground v.1.15,2013-04-10 21:10:00,
2013-04-10 17:19:00,56.3,49.5,29.90,NW,321,0.0,0.0,78,0.00,,,0.36,Wunderground v.1.15,2013-04-10 21:19:00,
2013-04-10 17:25:00,56.2,50.8,29.90,NW,321,0.0,0.0,82,0.00,,,0.36,Wunderground v.1.15,2013-04-10 21:25:00,
2013-04-10 17:30:00,55.9,49.1,29.89,NW,321,0.0,2.0,78,0.00,,,0.36,Wunderground v.1.15,2013-04-10 21:30:00,
2013-04-10 17:35:00,55.7,48.6,29.89,NNW,336,1.0,2.0,77,0.00,,,0.36,Wunderground v.1.15,2013-04-10 21:35:00,
2013-04-10 17:45:00,55.6,51.2,29.89,NNW,336,0.0,1.0,85,0.00,,,0.36,Wunderground v.1.15,2013-04-10 21:45:00,
2013-04-10 17:50:00,55.3,48.6,29.88,North,355,1.0,1.0,78,0.00,,,0.36,Wunderground v.1.15,2013-04-10 21:50:00,
2013-04-10 17:55:00,55.4,49.7,29.88,North,355,1.0,1.0,81,0.00,,,0.36,Wunderground v.1.15,2013-04-10 21:55:00,
2013-04-10 18:05:00,55.1,49.0,29.88,North,355,1.0,1.0,80,0.00,,,0.36,Wunderground v.1.15,2013-04-10 22:05:00,
2013-04-10 18:10:00,55.1,50.0,29.88,North,355,1.0,1.0,83,0.00,,,0.36,Wunderground v.1.15,2013-04-10 22:10:00,
2013-04-10 18:20:00,54.7,50.3,29.88,North,355,0.0,0.0,85,0.00,,,0.36,Wunderground v.1.15,2013-04-10 22:20:00,
2013-04-10 18:25:00,54.4,50.3,29.88,North,355,0.0,0.0,86,0.00,,,0.36,Wunderground v.1.15,2013-04-10 22:25:00,
2013-04-10 18:30:00,53.9,50.1,29.88,North,355,0.0,0.0,87,0.00,,,0.37,Wunderground v.1.15,2013-04-10 22:30:00,
2013-04-10 18:35:00,53.2,50.0,29.90,North,355,0.0,0.0,89,0.00,,,0.37,Wunderground v.1.15,2013-04-10 22:35:00,
2013-04-10 18:45:00,52.5,50.5,29.89,North,355,0.0,0.0,93,0.21,,,0.43,Wunderground v.1.15,2013-04-10 22:45:00,
2013-04-10 18:50:00,52.3,50.6,29.88,North,355,0.0,0.0,94,0.29,,,0.45,Wunderground v.1.15,2013-04-10 22:50:00,
2013-04-10 18:55:00,52.2,50.8,29.90,North,355,0.0,0.0,95,0.63,,,0.49,Wunderground v.1.15,2013-04-10 22:55:00,
2013-04-10 19:05:00,51.9,50.8,29.90,North,355,0.0,0.0,96,0.36,,,0.56,Wunderground v.1.15,2013-04-10 23:05:00,
2013-04-10 19:10:00,51.7,50.6,29.89,North,355,0.0,0.0,96,0.43,,,0.60,Wunderground v.1.15,2013-04-10 23:10:00,
2013-04-10 19:15:00,51.6,50.8,29.89,North,355,0.0,0.0,97,0.34,,,0.63,Wunderground v.1.15,2013-04-10 23:15:00,
2013-04-10 19:25:00,51.1,50.3,29.88,North,355,0.0,0.0,97,0.22,,,0.66,Wunderground v.1.15,2013-04-10 23:25:00,
2013-04-10 19:30:00,51.1,50.6,29.87,North,355,0.0,0.0,98,0.32,,,0.69,Wunderground v.1.15,2013-04-10 23:30:00,
2013-04-10 19:35:00,51.1,50.6,29.92,North,355,0.0,0.0,98,0.24,,,0.71,Wunderground v.1.15,2013-04-10 23:35:00,
2013-04-10 19:44:00,51.0,50.5,29.89,ENE,69,1.0,1.0,98,1.02,,,0.84,Wunderground v.1.15,2013-04-10 23:44:00,
2013-04-10 19:50:00,50.8,50.5,29.90,ENE,69,1.0,1.0,99,0.37,,,0.88,Wunderground v.1.15,2013-04-10 23:50:00,
2013-04-10 20:00:00,50.8,50.5,29.88,ENE,69,0.0,1.0,99,0.09,,,0.90,Wunderground v.1.15,2013-04-11 00:00:00,
2013-04-10 20:05:00,50.7,50.4,29.89,ENE,69,0.0,1.0,99,0.08,,,0.91,Wunderground v.1.15,2013-04-11 00:05:00,
2013-04-10 20:15:00,50.5,50.2,29.90,ENE,69,0.0,0.0,99,0.07,,,0.92,Wunderground v.1.15,2013-04-11 00:15:00,
2013-04-10 20:20:00,50.4,50.1,29.91,ENE,69,0.0,0.0,99,0.04,,,0.92,Wunderground v.1.15,2013-04-11 00:20:00,
2013-04-10 20:25:00,50.5,50.5,29.91,NE,52,0.0,0.0,100,0.00,,,0.92,Wunderground v.1.15,2013-04-11 00:25:00,
2013-04-10 20:34:00,50.4,50.4,29.91,NE,52,0.0,0.0,100,0.00,,,0.93,Wunderground v.1.15,2013-04-11 00:34:00,
2013-04-10 20:40:00,50.4,50.4,29.91,NE,55,0.0,3.0,100,0.00,,,0.93,Wunderground v.1.15,2013-04-11 00:40:00,
2013-04-10 20:45:00,50.2,50.2,29.91,ENE,76,1.0,3.0,100,0.00,,,0.93,Wunderground v.1.15,2013-04-11 00:45:00,
2013-04-10 20:54:00,50.2,50.2,29.90,ENE,76,0.0,0.0,100,0.00,,,0.93,Wunderground v.1.15,2013-04-11 00:54:00,
2013-04-10 21:00:00,50.1,50.1,29.90,ENE,76,0.0,0.0,100,0.00,,,0.93,Wunderground v.1.15,2013-04-11 01:00:00,
2013-04-10 21:05:00,50.1,50.1,29.89,ENE,76,0.0,0.0,100,0.00,,,0.93,Wunderground v.1.15,2013-04-11 01:05:00,
2013-04-10 21:15:00,50.1,50.1,29.88,ENE,76,0.0,0.0,100,0.00,,,0.93,Wunderground v.1.15,2013-04-11 01:15:00,
2013-04-10 21:20:00,49.9,49.9,29.88,ENE,76,0.0,0.0,100,0.00,,,0.93,Wunderground v.1.15,2013-04-11 01:20:00,
2013-04-10 21:25:00,49.9,49.9,29.88,ENE,76,0.0,0.0,100,0.00,,,0.93,Wunderground v.1.15,2013-04-11 01:25:00,
2013-04-10 21:35:00,49.9,49.9,29.88,ENE,76,0.0,0.0,100,0.00,,,0.93,Wunderground v.1.15,2013-04-11 01:35:00,
2013-04-10 21:40:00,49.9,49.9,29.88,ENE,76,0.0,0.0,100,0.00,,,0.93,Wunderground v.1.15,2013-04-11 01:40:00,
2013-04-10 21:45:00,49.8,49.8,29.88,ENE,76,0.0,0.0,100,0.00,,,0.93,Wunderground v.1.15,2013-04-11 01:45:00,
2013-04-10 21:50:00,49.6,49.6,29.88,ENE,76,0.0,0.0,100,0.00,,,0.93,Wunderground v.1.15,2013-04-11 01:50:00,
2013-04-10 22:00:00,49.6,49.6,29.89,ENE,76,0.0,0.0,100,0.00,,,0.93,Wunderground v.1.15,2013-04-11 02:00:00,
2013-04-10 22:05:00,49.5,49.5,29.89,ENE,76,0.0,0.0,100,0.00,,,0.93,Wunderground v.1.15,2013-04-11 02:05:00,
2013-04-10 22:14:00,49.5,49.5,29.89,ENE,76,0.0,0.0,100,0.00,,,0.93,Wunderground v.1.15,2013-04-11 02:14:00,
2013-04-10 22:20:00,49.4,49.4,29.89,ENE,76,0.0,1.0,100,0.00,,,0.93,Wunderground v.1.15,2013-04-11 02:20:00,
2013-04-10 22:25:00,49.5,49.5,29.89,ENE,61,0.0,1.0,100,0.00,,,0.93,Wunderground v.1.15,2013-04-11 02:25:00,
2013-04-10 22:30:00,49.6,49.6,29.90,NW,321,2.0,2.0,100,0.00,,,0.93,Wunderground v.1.15,2013-04-11 02:30:00,
2013-04-10 22:40:00,49.6,49.6,29.90,NNW,336,1.0,4.0,100,0.00,,,0.94,Wunderground v.1.15,2013-04-11 02:40:00,
2013-04-10 22:45:00,49.5,49.5,29.90,NNW,337,1.0,4.0,100,0.18,,,0.96,Wunderground v.1.15,2013-04-11 02:45:00,
2013-04-10 22:50:00,49.4,49.4,29.90,NNW,329,2.0,3.0,100,0.17,,,0.97,Wunderground v.1.15,2013-04-11 02:50:00,
2013-04-10 23:00:00,49.1,49.1,29.91,NNW,340,2.0,4.0,100,0.19,,,1.00,Wunderground v.1.15,2013-04-11 03:00:00,
2013-04-10 23:05:00,48.9,48.9,29.91,NNW,343,2.0,4.0,100,0.21,,,1.02,Wunderground v.1.15,2013-04-11 03:05:00,
2013-04-10 23:15:00,48.5,48.2,29.91,North,355,1.0,2.0,99,0.12,,,1.04,Wunderground v.1.15,2013-04-11 03:15:00,
2013-04-10 23:20:00,48.5,48.2,29.90,NE,42,2.0,2.0,99,0.10,,,1.05,Wunderground v.1.15,2013-04-11 03:20:00,
2013-04-10 23:25:00,48.3,48.0,29.90,North,355,2.0,3.0,99,0.09,,,1.06,Wunderground v.1.15,2013-04-11 03:25:00,
2013-04-10 23:30:00,48.2,47.9,29.89,NNW,340,3.0,8.0,99,0.09,,,1.06,Wunderground v.1.15,2013-04-11 03:30:00,
2013-04-10 23:40:00,47.7,47.2,29.90,NNE,18,3.0,4.0,98,0.06,,,1.07,Wunderground v.1.15,2013-04-11 03:40:00,
2013-04-10 23:45:00,47.6,47.1,29.90,NNW,327,2.0,4.0,98,0.06,,,1.07,Wunderground v.1.15,2013-04-11 03:45:00,
2013-04-10 23:50:00,47.6,47.1,29.90,North,355,1.0,2.0,98,0.04,,,1.07,Wunderground v.1.15,2013-04-11 03:50:00,